Time;durP1;ratioP1;P1;durP2;ratioP2;P2;SDS_P1;SDS_P2;PMS_P1;PMS_P2;Temp;Humidity;BMP_temperature;BMP_pressure;BME280_temperature;BME280_humidity;BME280_pressure;Samples;Min_cycle;Max_cycle;Signal;HPM_P1;HPM_P2
2023/01/16 00:01:13;;;;;;;7.32;3.50;;;4.10;99.90;;;;;;5034775;28;20036;-82
2023/01/16 00:03:38;;;;;;;7.53;3.50;;;4.10;99.90;;;;;;5037175;28;20036;-82
2023/01/16 00:06:04;;;;;;;6.90;3.83;;;4.10;99.90;;;;;;5034743;28;20063;-82
2023/01/16 00:08:30;;;;;;;6.97;4.18;;;4.10;99.90;;;;;;5050902;28;20502;-82
2023/01/16 00:10:56;;;;;;;7.00;4.43;;;4.10;99.90;;;;;;5051426;28;20047;-82
2023/01/16 00:13:21;;;;;;;9.45;4.90;;;4.10;99.90;;;;;;5053332;28;20040;-82
2023/01/16 00:15:49;;;;;;;6.88;4.72;;;4.20;99.90;;;;;;5052964;28;20033;-82
2023/01/16 00:18:15;;;;;;;8.73;4.68;;;4.10;99.90;;;;;;5052865;28;20128;-82
2023/01/16 00:20:40;;;;;;;7.68;4.32;;;4.20;99.90;;;;;;5053231;28;20112;-82
2023/01/16 00:23:06;;;;;;;7.78;4.32;;;4.20;99.90;;;;;;5052973;28;20442;-82
2023/01/16 00:25:32;;;;;;;9.05;4.45;;;4.10;99.90;;;;;;5036661;28;20037;-82
2023/01/16 00:27:57;;;;;;;6.47;4.00;;;4.20;99.90;;;;;;5036228;28;20036;-82
2023/01/16 00:30:24;;;;;;;8.00;4.30;;;4.10;99.90;;;;;;5052750;28;20486;-82
2023/01/16 00:32:49;;;;;;;7.35;3.63;;;4.10;99.90;;;;;;5036448;28;20041;-82
2023/01/16 00:35:15;;;;;;;7.50;3.83;;;4.10;99.90;;;;;;5052731;28;20045;-82
2023/01/16 00:37:41;;;;;;;8.25;3.75;;;4.90;99.90;;;;;;5052716;28;20521;-82
2023/01/16 00:40:07;;;;;;;6.07;4.05;;;3.90;99.90;;;;;;5052766;28;20069;-82
2023/01/16 00:42:32;;;;;;;8.75;4.20;;;3.80;99.90;;;;;;5052297;28;20044;-83
2023/01/16 00:44:58;;;;;;;4.43;3.40;;;3.80;99.90;;;;;;5036033;28;20037;-82
2023/01/16 00:47:23;;;;;;;6.65;3.60;;;3.70;99.90;;;;;;5052483;28;20048;-82
2023/01/16 00:49:49;;;;;;;6.35;3.42;;;3.70;99.90;;;;;;5051485;28;20094;-82
2023/01/16 00:52:14;;;;;;;6.05;3.63;;;3.60;99.90;;;;;;5052765;28;20524;-82
2023/01/16 00:54:40;;;;;;;8.40;3.50;;;3.60;99.90;;;;;;5052559;28;20045;-82
2023/01/16 00:57:05;;;;;;;6.85;3.58;;;3.50;99.90;;;;;;5034968;28;20604;-82
2023/01/16 00:59:31;;;;;;;7.60;3.85;;;3.40;99.90;;;;;;5051882;28;20036;-82
2023/01/16 01:01:56;;;;;;;6.78;3.50;;;3.40;99.90;;;;;;5052581;28;20037;-82
2023/01/16 01:04:22;;;;;;;9.90;3.95;;;3.40;99.90;;;;;;5052291;28;20037;-82
2023/01/16 01:06:47;;;;;;;7.07;3.50;;;3.30;99.90;;;;;;5052484;28;20055;-82
2023/01/16 01:09:13;;;;;;;4.70;3.33;;;3.30;99.90;;;;;;5052046;28;20079;-81
2023/01/16 01:11:38;;;;;;;7.30;3.95;;;3.30;99.90;;;;;;5052273;28;20041;-82
2023/01/16 01:14:04;;;;;;;5.93;3.30;;;3.30;99.90;;;;;;5052141;28;20098;-82
2023/01/16 01:16:30;;;;;;;5.07;3.03;;;3.30;99.90;;;;;;5052199;28;20554;-82
2023/01/16 01:18:55;;;;;;;6.70;3.78;;;3.30;99.90;;;;;;5051995;28;20121;-82
2023/01/16 01:21:21;;;;;;;5.78;3.60;;;3.30;99.90;;;;;;5052434;28;20537;-82
2023/01/16 01:23:46;;;;;;;7.93;3.20;;;3.30;99.90;;;;;;5051905;28;20041;-82
2023/01/16 01:26:15;;;;;;;7.78;3.03;;;3.30;99.90;;;;;;5052314;28;20085;-82
2023/01/16 01:28:41;;;;;;;5.55;3.13;;;3.30;99.90;;;;;;5051362;28;20095;-82
2023/01/16 01:31:09;;;;;;;6.65;3.60;;;3.40;99.90;;;;;;5051761;28;20041;-82
2023/01/16 01:33:35;;;;;;;8.35;3.15;;;3.30;99.90;;;;;;5051854;28;20080;-82
2023/01/16 01:36:01;;;;;;;9.52;3.15;;;3.30;99.90;;;;;;5052032;28;20507;-82
2023/01/16 01:38:27;;;;;;;5.30;2.90;;;3.40;99.90;;;;;;5051532;28;20033;-83
2023/01/16 01:40:52;;;;;;;3.85;2.65;;;3.30;99.90;;;;;;5035154;28;20167;-81
2023/01/16 01:43:19;;;;;;;4.40;2.80;;;3.30;99.90;;;;;;5051456;28;20112;-82
2023/01/16 01:45:55;;;;;;;5.50;2.92;;;3.20;99.90;;;;;;5051693;28;20098;-82
2023/01/16 01:48:30;;;;;;;4.82;2.60;;;3.20;99.90;;;;;;5051282;28;20036;-82
2023/01/16 01:51:05;;;;;;;9.02;3.17;;;3.20;99.90;;;;;;5034841;28;20102;-82
2023/01/16 01:53:37;;;;;;;6.30;2.75;;;3.20;99.90;;;;;;5051747;28;20059;-82
2023/01/16 01:56:27;;;;;;;7.50;3.08;;;3.30;99.90;;;;;;5051338;28;20040;-82
2023/01/16 01:58:57;;;;;;;6.18;3.05;;;3.30;99.90;;;;;;5050240;28;20522;-82
2023/01/16 02:01:24;;;;;;;5.07;2.70;;;3.30;99.90;;;;;;5031290;28;20045;-82
2023/01/16 02:03:56;;;;;;;7.25;2.95;;;3.30;99.90;;;;;;5046488;28;20036;-82
2023/01/16 02:06:28;;;;;;;7.28;2.83;;;3.30;99.90;;;;;;5051340;28;20112;-82
2023/01/16 02:08:54;;;;;;;5.97;3.20;;;3.40;99.90;;;;;;5051036;28;20525;-82
2023/01/16 02:11:57;;;;;;;6.93;2.80;;;3.40;99.90;;;;;;5051550;28;20077;-82
2023/01/16 02:14:25;;;;;;;7.88;3.33;;;3.40;99.90;;;;;;5050962;28;20041;-82
2023/01/16 02:20:20;;;;;;;6.18;2.50;;;3.40;99.90;;;;;;5050911;28;20045;-82
2023/01/16 02:23:04;;;;;;;7.07;2.90;;;3.50;99.90;;;;;;5050801;28;20036;-81
2023/01/16 02:26:12;;;;;;;5.10;2.50;;;3.50;99.90;;;;;;5050992;28;20037;-82
2023/01/16 02:29:12;;;;;;;4.97;2.28;;;3.50;99.90;;;;;;5050634;28;20120;-82
2023/01/16 02:31:42;;;;;;;5.35;2.63;;;3.50;99.90;;;;;;5050971;28;20064;-82
2023/01/16 02:34:34;;;;;;;4.70;2.53;;;3.50;99.90;;;;;;5050543;28;20060;-81
2023/01/16 02:36:59;;;;;;;7.22;3.28;;;3.50;99.90;;;;;;5050592;28;20033;-82
2023/01/16 02:40:02;;;;;;;10.15;2.72;;;3.60;99.90;;;;;;5050732;28;20033;-82
2023/01/16 02:42:43;;;;;;;8.52;2.63;;;3.60;99.90;;;;;;5032162;28;20053;-82
2023/01/16 02:45:17;;;;;;;7.75;2.80;;;3.60;99.90;;;;;;5050768;28;20411;-82
2023/01/16 02:48:18;;;;;;;5.75;2.70;;;3.60;99.90;;;;;;5050727;28;20441;-81
2023/01/16 02:50:57;;;;;;;5.80;2.40;;;3.60;99.90;;;;;;5047647;28;20418;-82
2023/01/16 02:53:29;;;;;;;9.02;2.95;;;3.60;99.90;;;;;;5050428;28;20123;-82
2023/01/16 02:56:02;;;;;;;6.80;2.60;;;3.60;99.90;;;;;;5033467;28;20040;-82
2023/01/16 02:58:31;;;;;;;6.97;2.30;;;3.60;99.90;;;;;;5033374;28;20044;-82
2023/01/16 03:00:58;;;;;;;6.00;2.55;;;3.60;99.90;;;;;;5050554;28;20403;-82
2023/01/16 03:03:52;;;;;;;6.95;2.67;;;3.70;99.90;;;;;;5050005;28;20056;-82
2023/01/16 03:06:39;;;;;;;6.53;2.70;;;3.60;99.90;;;;;;5013991;28;20132;-82
2023/01/16 03:09:33;;;;;;;7.25;2.72;;;3.70;99.90;;;;;;5032120;28;20051;-82
2023/01/16 03:12:13;;;;;;;6.35;2.70;;;3.70;99.90;;;;;;5049341;28;20533;-82
2023/01/16 03:15:04;;;;;;;6.55;2.67;;;3.70;99.90;;;;;;5049887;28;20049;-82
2023/01/16 03:17:43;;;;;;;6.55;2.83;;;3.70;99.90;;;;;;5049916;28;20037;-82
2023/01/16 03:20:16;;;;;;;3.83;2.38;;;3.70;99.90;;;;;;5050388;28;20457;-82
2023/01/16 03:22:52;;;;;;;6.32;2.60;;;3.70;99.90;;;;;;5049873;28;20033;-82
2023/01/16 03:25:32;;;;;;;6.15;2.70;;;3.70;99.90;;;;;;5050084;28;20041;-82
2023/01/16 03:28:07;;;;;;;6.65;2.80;;;3.60;99.90;;;;;;5049763;28;20564;-82
2023/01/16 03:30:47;;;;;;;6.13;2.53;;;3.60;99.90;;;;;;5050303;28;20037;-82
2023/01/16 03:33:28;;;;;;;8.30;3.13;;;3.50;99.90;;;;;;5049831;28;20044;-82
2023/01/16 03:36:07;;;;;;;5.55;2.90;;;3.50;99.90;;;;;;5050206;28;20037;-82
2023/01/16 03:38:36;;;;;;;6.93;2.63;;;3.40;99.90;;;;;;5049963;28;20068;-82
2023/01/16 03:41:05;;;;;;;4.88;2.67;;;3.30;99.90;;;;;;5049791;28;20031;-82
2023/01/16 03:43:37;;;;;;;5.43;3.10;;;3.20;99.90;;;;;;5049775;28;20037;-82
2023/01/16 03:46:17;;;;;;;5.00;2.40;;;3.20;99.90;;;;;;5033295;28;20033;-82
2023/01/16 03:49:04;;;;;;;8.40;2.88;;;3.20;99.90;;;;;;5049615;28;20076;-82
2023/01/16 03:51:36;;;;;;;8.15;2.55;;;3.20;99.90;;;;;;5049943;28;20065;-82
2023/01/16 03:54:27;;;;;;;8.52;3.05;;;3.20;99.90;;;;;;5032910;28;20037;-82
2023/01/16 03:56:57;;;;;;;6.40;3.05;;;3.20;99.90;;;;;;5049662;28;20041;-82
2023/01/16 03:59:23;;;;;;;8.18;3.10;;;3.30;99.90;;;;;;5049817;28;20428;-82
2023/01/16 04:02:00;;;;;;;6.57;3.03;;;3.30;99.90;;;;;;5033117;28;20098;-82
2023/01/16 04:05:00;;;;;;;7.30;3.47;;;3.30;99.90;;;;;;5049806;28;20577;-82
2023/01/16 04:07:40;;;;;;;6.43;3.22;;;3.40;99.90;;;;;;5049570;28;20045;-82
2023/01/16 04:10:28;;;;;;;8.60;3.28;;;3.40;99.90;;;;;;5049854;28;20528;-82
2023/01/16 04:13:10;;;;;;;6.18;3.30;;;3.40;99.90;;;;;;5049720;28;20464;-82
2023/01/16 04:15:41;;;;;;;7.95;3.30;;;3.40;99.90;;;;;;5049275;28;20047;-82
2023/01/16 04:18:06;;;;;;;7.30;3.70;;;3.40;99.90;;;;;;5049388;28;20037;-82
2023/01/16 04:20:32;;;;;;;11.00;3.75;;;3.40;99.90;;;;;;5031700;28;20088;-82
2023/01/16 04:22:58;;;;;;;6.50;3.65;;;3.50;99.90;;;;;;5030923;28;20120;-82
2023/01/16 04:25:24;;;;;;;8.57;4.10;;;3.40;99.90;;;;;;5051502;28;20056;-82
2023/01/16 04:27:49;;;;;;;10.73;4.15;;;3.40;99.90;;;;;;5053059;28;20481;-82
2023/01/16 04:30:15;;;;;;;9.32;3.95;;;3.40;99.90;;;;;;5037043;28;20414;-82
2023/01/16 04:32:41;;;;;;;8.68;3.97;;;3.40;99.90;;;;;;5053020;28;20056;-82
2023/01/16 04:35:07;;;;;;;8.73;4.40;;;3.40;99.90;;;;;;5053049;28;20502;-82
2023/01/16 04:37:33;;;;;;;8.77;4.22;;;3.40;99.90;;;;;;5052660;28;20039;-82
2023/01/16 04:39:59;;;;;;;13.10;4.85;;;3.50;99.90;;;;;;5053163;28;20048;-82
2023/01/16 04:42:25;;;;;;;8.50;4.85;;;3.50;99.90;;;;;;5036432;28;20032;-82
2023/01/16 04:44:50;;;;;;;9.35;5.60;;;3.50;99.90;;;;;;5052763;28;20128;-82
2023/01/16 04:47:16;;;;;;;12.70;5.20;;;3.60;99.90;;;;;;5052808;28;20041;-82
2023/01/16 04:49:41;;;;;;;13.10;5.15;;;3.60;99.90;;;;;;5052703;28;20044;-82
2023/01/16 04:52:07;;;;;;;8.73;5.03;;;3.60;99.90;;;;;;5034823;28;20067;-81
2023/01/16 04:54:32;;;;;;;15.60;5.40;;;3.60;99.90;;;;;;5052280;28;20048;-82
2023/01/16 04:56:58;;;;;;;9.98;5.53;;;3.60;99.90;;;;;;5052509;28;20033;-81
2023/01/16 04:59:24;;;;;;;12.88;5.35;;;3.60;99.90;;;;;;5052488;28;20037;-82
2023/01/16 05:01:49;;;;;;;11.38;5.55;;;3.70;99.90;;;;;;5035983;28;20092;-82
2023/01/16 05:04:16;;;;;;;9.48;5.38;;;3.60;99.90;;;;;;5052734;28;20037;-82
2023/01/16 05:06:41;;;;;;;9.82;5.68;;;3.70;99.90;;;;;;5052699;28;20037;-82
2023/01/16 05:09:07;;;;;;;10.45;5.68;;;3.70;99.90;;;;;;5052748;28;20109;-82
2023/01/16 05:11:34;;;;;;;11.50;6.05;;;3.60;99.90;;;;;;5035863;28;20494;-82
2023/01/16 05:14:00;;;;;;;12.45;6.00;;;3.60;99.90;;;;;;5052237;28;20041;-82
2023/01/16 05:16:26;;;;;;;11.80;6.53;;;3.60;99.90;;;;;;5052473;28;20512;-82
2023/01/16 05:18:52;;;;;;;12.32;7.13;;;3.60;99.90;;;;;;5052454;28;20086;-82
2023/01/16 05:21:17;;;;;;;10.65;5.85;;;3.60;99.90;;;;;;5052166;28;20112;-82
2023/01/16 05:23:43;;;;;;;12.60;6.20;;;3.60;99.90;;;;;;5051935;28;21182;-82
2023/01/16 05:26:09;;;;;;;11.52;6.05;;;3.50;99.90;;;;;;5035590;28;20110;-82
2023/01/16 05:28:35;;;;;;;9.25;5.93;;;3.50;99.90;;;;;;5052102;28;20191;-81
2023/01/16 05:31:02;;;;;;;9.15;6.20;;;3.40;99.90;;;;;;5051895;28;20110;-82
2023/01/16 05:33:27;;;;;;;9.90;6.10;;;3.40;99.90;;;;;;5035642;28;20041;-82
2023/01/16 05:35:53;;;;;;;11.55;6.22;;;3.40;99.90;;;;;;5051215;28;20041;-82
2023/01/16 05:38:19;;;;;;;10.98;5.68;;;3.30;99.90;;;;;;5052220;28;20087;-82
2023/01/16 05:40:45;;;;;;;11.68;5.68;;;3.20;99.90;;;;;;5051921;28;20040;-82
2023/01/16 05:43:12;;;;;;;15.13;6.10;;;3.20;99.90;;;;;;5050192;28;20388;-82
2023/01/16 05:45:37;;;;;;;9.70;5.72;;;3.20;99.90;;;;;;5052094;28;20048;-82
2023/01/16 05:48:03;;;;;;;14.48;6.30;;;3.10;99.90;;;;;;5051907;28;20040;-82
2023/01/16 05:50:29;;;;;;;11.63;5.80;;;3.00;99.90;;;;;;5050913;28;20048;-82
2023/01/16 05:52:55;;;;;;;9.90;6.03;;;3.00;99.90;;;;;;5034987;28;20041;-82
2023/01/16 05:55:20;;;;;;;9.65;5.60;;;3.10;99.90;;;;;;5051460;28;20045;-82
2023/01/16 05:57:46;;;;;;;11.13;6.45;;;2.90;99.90;;;;;;5034824;28;20037;-82
2023/01/16 06:00:12;;;;;;;10.07;7.32;;;2.90;99.90;;;;;;5051487;28;20033;-82
2023/01/16 06:02:37;;;;;;;11.98;7.00;;;2.90;99.90;;;;;;5051491;28;20406;-82
2023/01/16 06:05:04;;;;;;;11.38;7.22;;;2.90;99.90;;;;;;5051638;28;20056;-82
2023/01/16 06:07:29;;;;;;;11.43;7.15;;;2.90;99.90;;;;;;5034391;28;20088;-82
2023/01/16 06:09:55;;;;;;;12.73;6.68;;;2.80;99.90;;;;;;5050443;28;20151;-82
2023/01/16 06:12:21;;;;;;;11.95;7.60;;;2.80;99.90;;;;;;5034709;28;20033;-82
2023/01/16 06:14:47;;;;;;;12.77;7.50;;;2.80;99.90;;;;;;5051075;28;20041;-82
2023/01/16 06:17:14;;;;;;;12.93;7.63;;;2.80;99.90;;;;;;5051278;28;20037;-82
2023/01/16 06:19:40;;;;;;;16.80;8.55;;;2.90;99.90;;;;;;5050899;28;20091;-82
2023/01/16 06:22:06;;;;;;;17.02;8.68;;;2.90;99.90;;;;;;5050952;28;20037;-82
2023/01/16 06:24:32;;;;;;;15.50;8.48;;;2.90;99.90;;;;;;5052135;28;20036;-82
2023/01/16 06:26:58;;;;;;;14.32;8.32;;;3.00;99.90;;;;;;5027852;28;20033;-81
2023/01/16 06:29:24;;;;;;;16.55;9.63;;;3.00;99.90;;;;;;5048025;28;20040;-81
2023/01/16 06:31:49;;;;;;;24.98;9.55;;;3.00;99.90;;;;;;5034709;28;20037;-82
2023/01/16 06:34:15;;;;;;;18.60;9.20;;;3.00;99.90;;;;;;5051257;28;20041;-82
2023/01/16 06:36:41;;;;;;;16.90;9.63;;;3.00;99.90;;;;;;5050800;28;20072;-82
2023/01/16 06:39:07;;;;;;;18.65;9.68;;;3.00;99.90;;;;;;5049512;28;20413;-82
2023/01/16 06:41:33;;;;;;;15.55;8.65;;;3.00;99.90;;;;;;5049135;28;20127;-81
2023/01/16 06:43:58;;;;;;;16.98;8.73;;;3.00;99.90;;;;;;5050339;28;20116;-82
2023/01/16 06:46:24;;;;;;;16.23;8.90;;;2.90;99.90;;;;;;5051313;28;20498;-81
2023/01/16 06:48:49;;;;;;;20.17;9.05;;;2.90;99.90;;;;;;5051313;28;20036;-81
2023/01/16 06:51:15;;;;;;;15.77;8.93;;;2.90;99.90;;;;;;5051472;28;20507;-81
2023/01/16 06:53:40;;;;;;;17.73;8.70;;;2.90;99.90;;;;;;5024909;28;20080;-81
2023/01/16 06:56:06;;;;;;;14.00;8.25;;;2.90;99.90;;;;;;5014501;28;20168;-81
2023/01/16 06:58:32;;;;;;;18.75;9.32;;;2.80;99.90;;;;;;5030338;28;20499;-82
2023/01/16 07:00:57;;;;;;;15.93;8.68;;;2.80;99.90;;;;;;5030833;28;20037;-82
2023/01/16 07:03:24;;;;;;;15.88;8.32;;;2.80;99.90;;;;;;5031808;28;20037;-82
2023/01/16 07:05:49;;;;;;;17.13;9.07;;;2.80;99.90;;;;;;5031469;28;20071;-81
2023/01/16 07:08:15;;;;;;;12.65;7.90;;;2.80;99.90;;;;;;5014756;28;20041;-81
2023/01/16 07:10:41;;;;;;;17.63;8.52;;;2.80;99.90;;;;;;5048955;28;20041;-81
2023/01/16 07:13:07;;;;;;;14.93;8.20;;;2.80;99.90;;;;;;5050936;28;20044;-81
2023/01/16 07:23:54;;;;;;;15.23;7.32;;;2.80;99.90;;;;;;5050714;28;20061;-81
2023/01/16 07:26:22;;;;;;;17.33;6.72;;;2.80;99.90;;;;;;5050551;28;20036;-82
2023/01/16 07:28:50;;;;;;;13.52;7.22;;;2.80;99.90;;;;;;5050118;28;20068;-82
2023/01/16 07:31:16;;;;;;;12.48;6.97;;;2.80;99.90;;;;;;5033670;28;20037;-82
2023/01/16 07:33:42;;;;;;;15.45;7.30;;;2.80;99.90;;;;;;5050111;28;20033;-82
2023/01/16 07:36:07;;;;;;;12.00;7.10;;;2.70;99.90;;;;;;5050127;28;20464;-81
2023/01/16 07:38:33;;;;;;;14.95;6.90;;;2.70;99.90;;;;;;5051613;28;20136;-81
2023/01/16 07:40:58;;;;;;;19.25;7.80;;;3.10;99.90;;;;;;5053878;28;20436;-81
2023/01/16 07:43:24;;;;;;;16.08;7.07;;;2.70;99.90;;;;;;5050245;28;20441;-81
2023/01/16 07:45:52;;;;;;;13.40;6.97;;;2.70;99.90;;;;;;5050175;28;20037;-82
2023/01/16 07:48:24;;;;;;;14.43;6.45;;;2.70;99.90;;;;;;5042894;28;20450;-82
2023/01/16 07:50:55;;;;;;;11.63;6.43;;;2.70;99.90;;;;;;5029986;28;20044;-82
2023/01/16 07:53:22;;;;;;;13.77;6.43;;;2.70;99.90;;;;;;5030201;28;20125;-82
2023/01/16 07:55:54;;;;;;;12.95;6.50;;;2.70;99.90;;;;;;5030145;28;20045;-82
2023/01/16 07:58:20;;;;;;;12.13;6.55;;;2.70;99.90;;;;;;5049071;28;20040;-82
2023/01/16 08:00:47;;;;;;;10.10;6.15;;;2.70;99.90;;;;;;5054592;28;20567;-82
2023/01/16 08:03:13;;;;;;;12.25;6.22;;;2.70;99.90;;;;;;5054161;28;20033;-82
2023/01/16 08:05:39;;;;;;;13.32;6.50;;;2.70;99.90;;;;;;5053993;28;20279;-82
2023/01/16 08:08:05;;;;;;;11.18;6.03;;;2.70;99.90;;;;;;5055603;28;20087;-82
2023/01/16 08:10:31;;;;;;;11.68;5.50;;;2.70;99.90;;;;;;5054767;28;20041;-81
2023/01/16 08:12:56;;;;;;;12.82;5.65;;;2.70;99.90;;;;;;5054309;28;20076;-81
2023/01/16 08:15:22;;;;;;;12.23;5.95;;;2.70;99.90;;;;;;5052046;28;20124;-82
2023/01/16 08:17:47;;;;;;;11.15;5.85;;;2.70;99.90;;;;;;5036567;28;20048;-82
2023/01/16 08:20:13;;;;;;;14.32;5.93;;;2.80;99.90;;;;;;5048208;28;20037;-82
2023/01/16 08:22:46;;;;;;;10.98;5.85;;;2.80;99.90;;;;;;5032773;28;20038;-82
2023/01/16 08:25:13;;;;;;;10.43;6.07;;;2.80;99.90;;;;;;5031677;28;20123;-81
2023/01/16 08:27:40;;;;;;;12.25;5.97;;;2.80;99.90;;;;;;5048262;28;20099;-81
2023/01/16 08:30:08;;;;;;;13.20;6.30;;;2.80;99.90;;;;;;5051324;28;20052;-82
2023/01/16 08:32:34;;;;;;;15.02;6.45;;;2.90;99.90;;;;;;5035144;28;20076;-82
2023/01/16 08:34:59;;;;;;;11.80;6.13;;;2.90;99.90;;;;;;5051065;28;20076;-82
2023/01/16 08:37:25;;;;;;;12.60;6.20;;;2.90;99.90;;;;;;5051401;28;20048;-82
2023/01/16 08:39:51;;;;;;;10.98;6.40;;;3.00;99.90;;;;;;5052288;28;20056;-82
2023/01/16 08:53:13;;;;;;;9.13;6.03;;;3.10;99.90;;;;;;5048427;28;20459;-81
2023/01/16 08:55:39;;;;;;;11.48;5.93;;;3.10;99.90;;;;;;5033732;28;20041;-82
2023/01/16 08:58:05;;;;;;;10.00;6.43;;;3.20;99.90;;;;;;5033991;28;20033;-81
2023/01/16 09:00:31;;;;;;;9.13;5.78;;;3.20;99.90;;;;;;5046818;28;20037;-81
2023/01/16 09:02:59;;;;;;;10.73;6.05;;;3.20;99.90;;;;;;5014311;28;20539;-82
2023/01/16 09:05:25;;;;;;;14.13;6.35;;;3.20;99.90;;;;;;5043893;28;20510;-81
2023/01/16 09:07:51;;;;;;;16.23;6.35;;;3.20;99.90;;;;;;5038009;28;20073;-82
2023/01/16 09:10:17;;;;;;;11.93;6.15;;;3.30;99.90;;;;;;5051335;28;20029;-82
2023/01/16 09:15:26;;;;;;;8.82;5.70;;;3.30;99.90;;;;;;5052172;28;20045;-82
2023/01/16 09:17:52;;;;;;;11.23;5.80;;;3.30;99.90;;;;;;5052118;28;20032;-82
2023/01/16 09:20:18;;;;;;;9.82;5.40;;;3.40;99.90;;;;;;5052535;28;20032;-82
2023/01/16 09:22:43;;;;;;;12.80;5.40;;;4.00;99.90;;;;;;5035387;28;20033;-82
2023/01/16 09:25:09;;;;;;;10.98;6.07;;;3.40;99.90;;;;;;5052083;28;20067;-82
2023/01/16 09:27:35;;;;;;;11.77;5.25;;;3.50;99.90;;;;;;5037847;28;20439;-82
2023/01/16 09:30:01;;;;;;;11.80;5.05;;;3.50;99.90;;;;;;5032431;28;20065;-82
2023/01/16 09:32:27;;;;;;;8.50;4.88;;;3.50;99.90;;;;;;5044740;28;20045;-82
2023/01/16 09:34:52;;;;;;;8.48;5.30;;;3.50;99.90;;;;;;5051653;28;20192;-82
2023/01/16 09:37:18;;;;;;;8.35;4.78;;;3.50;99.90;;;;;;5051945;28;20037;-82
2023/01/16 09:39:44;;;;;;;11.05;5.10;;;3.50;99.90;;;;;;5051725;28;20037;-81
2023/01/16 09:45:10;;;;;;;7.63;4.22;;;3.60;99.90;;;;;;5051461;28;20118;-81
2023/01/16 09:47:37;;;;;;;8.43;4.72;;;3.60;99.90;;;;;;5053572;28;20037;-81
2023/01/16 09:50:12;;;;;;;9.50;4.65;;;3.60;99.90;;;;;;5053993;28;20673;-80
2023/01/16 09:58:36;;;;;;;9.85;4.40;;;3.70;99.90;;;;;;5048971;28;20080;-81
2023/01/16 10:01:26;;;;;;;8.10;4.22;;;3.70;99.90;;;;;;5016086;28;20030;-82
2023/01/16 10:04:03;;;;;;;7.15;4.15;;;3.70;99.90;;;;;;5048215;28;20102;-81
2023/01/16 10:06:39;;;;;;;7.25;3.88;;;3.70;99.90;;;;;;5049540;28;20037;-81
2023/01/16 10:09:16;;;;;;;6.20;3.92;;;3.70;99.90;;;;;;5032550;28;20037;-81
2023/01/16 10:11:54;;;;;;;8.25;4.00;;;3.70;99.90;;;;;;5049359;28;20041;-82
2023/01/16 10:15:05;;;;;;;8.70;3.80;;;3.70;99.90;;;;;;5047059;28;20048;-81
2023/01/16 10:17:46;;;;;;;9.00;3.55;;;3.70;99.90;;;;;;5034877;28;20086;-81
2023/01/16 10:20:46;;;;;;;6.65;3.72;;;3.70;99.90;;;;;;5050360;28;20041;-82
2023/01/16 10:23:15;;;;;;;6.65;3.70;;;3.70;99.90;;;;;;5050072;28;20128;-82
2023/01/16 10:26:08;;;;;;;6.45;3.20;;;3.80;99.90;;;;;;5050397;28;20055;-82
2023/01/16 10:29:02;;;;;;;8.32;3.47;;;4.50;99.90;;;;;;5050010;28;20083;-81
2023/01/16 10:31:42;;;;;;;6.30;3.15;;;3.80;99.90;;;;;;5048227;28;20055;-81
2023/01/16 10:34:31;;;;;;;4.68;2.90;;;3.80;99.90;;;;;;5031574;28;20475;-81
2023/01/16 10:36:59;;;;;;;4.85;2.90;;;3.80;99.90;;;;;;5030837;28;20494;-82
2023/01/16 10:39:30;;;;;;;7.68;2.83;;;3.80;99.90;;;;;;5049650;28;20041;-82
2023/01/16 10:50:30;;;;;;;;;;;3.80;99.90;;;;;;5050865;28;20049;-82
2023/01/16 10:52:56;;;;;;;5.72;2.70;;;3.80;99.90;;;;;;5046342;28;19921;-82
2023/01/16 10:55:22;;;;;;;5.63;2.60;;;3.70;99.90;;;;;;5029783;28;20048;-82
2023/01/16 10:57:52;;;;;;;9.32;4.60;;;3.80;99.90;;;;;;5044361;28;20033;-82
2023/01/16 11:00:41;;;;;;;5.47;3.20;;;3.70;99.90;;;;;;5050104;28;20029;-82
2023/01/16 11:03:35;;;;;;;6.03;3.20;;;3.70;99.90;;;;;;5050049;28;20039;-82
2023/01/16 11:06:19;;;;;;;;;;;3.70;99.90;;;;;;5034017;28;20032;-82
2023/01/16 11:09:08;;;;;;;3.67;2.50;;;3.60;99.90;;;;;;5049663;28;19916;-82
2023/01/16 11:20:31;;;;;;;3.40;2.10;;;3.50;99.90;;;;;;5049963;28;20041;-83
2023/01/16 11:23:14;;;;;;;2.83;1.90;;;3.50;99.90;;;;;;5033387;28;20037;-82
2023/01/16 11:25:40;;;;;;;4.00;2.08;;;3.40;99.90;;;;;;5049880;28;20036;-82
2023/01/16 11:28:10;;;;;;;3.15;1.80;;;3.40;99.90;;;;;;5049245;28;20083;-82
2023/01/16 11:30:44;;;;;;;3.40;2.10;;;3.40;99.90;;;;;;5049805;28;20064;-82
2023/01/16 11:33:37;;;;;;;5.68;2.45;;;3.40;99.90;;;;;;5048559;28;20072;-82
2023/01/16 11:36:03;;;;;;;3.05;2.00;;;3.40;99.90;;;;;;5036474;28;20319;-82
2023/01/16 11:38:35;;;;;;;6.78;3.95;;;3.40;99.90;;;;;;5027941;28;20090;-82
2023/01/16 11:41:03;;;;;;;2.90;1.92;;;3.40;99.90;;;;;;5027789;28;20447;-82
2023/01/16 11:46:32;;;;;;;2.47;1.75;;;3.40;99.90;;;;;;5048419;28;20120;-82
2023/01/16 11:49:04;;;;;;;6.38;3.00;;;3.40;99.90;;;;;;5032970;28;20091;-82
2023/01/16 11:51:32;;;;;;;9.75;4.75;;;3.40;99.90;;;;;;5049817;28;20044;-82
2023/01/16 11:54:00;;;;;;;6.38;3.28;;;3.40;99.90;;;;;;5049733;28;20044;-82
2023/01/16 11:56:59;;;;;;;6.63;3.42;;;3.40;99.90;;;;;;5049653;28;20033;-82
2023/01/16 11:59:54;;;;;;;9.18;6.15;;;3.40;99.90;;;;;;5049140;28;20471;-82
2023/01/16 12:02:39;;;;;;;6.65;4.10;;;3.40;99.90;;;;;;5049505;28;20088;-82
2023/01/16 12:08:33;;;;;;;3.33;2.50;;;3.40;99.90;;;;;;5049696;28;20415;-82
2023/01/16 12:11:01;;;;;;;4.05;2.10;;;3.40;99.90;;;;;;5037447;28;20075;-82
2023/01/16 12:16:36;;;;;;;2.70;1.80;;;3.50;99.90;;;;;;5049732;28;20486;-82
2023/01/16 12:19:20;;;;;;;4.55;2.60;;;3.40;99.90;;;;;;5049232;28;20040;-82
2023/01/16 12:22:02;;;;;;;;;;;3.40;99.90;;;;;;5050515;28;20057;-81
2023/01/16 12:24:40;;;;;;;3.58;2.17;;;3.40;99.90;;;;;;5049497;28;19917;-82
2023/01/16 12:27:44;;;;;;;3.65;1.90;;;3.40;99.90;;;;;;5049377;28;20521;-81
2023/01/16 12:30:45;;;;;;;2.90;2.20;;;3.40;99.90;;;;;;5026177;28;20041;-82
2023/01/16 12:33:26;;;;;;;3.20;2.03;;;3.50;99.90;;;;;;5022306;28;20128;-82
2023/01/16 12:36:06;;;;;;;4.50;2.22;;;3.50;99.90;;;;;;5049434;28;20121;-82
2023/01/16 12:38:37;;;;;;;4.78;2.45;;;3.50;99.90;;;;;;5049188;28;20367;-82
2023/01/16 12:44:25;;;;;;;3.58;2.30;;;3.50;99.90;;;;;;5039883;28;20041;-82
2023/01/16 12:47:22;;;;;;;3.92;2.40;;;3.50;99.90;;;;;;5040901;28;20453;-82
2023/01/16 12:50:20;;;;;;;4.57;2.33;;;3.60;99.90;;;;;;5035682;28;20043;-82
2023/01/16 12:53:13;;;;;;;3.08;2.30;;;3.60;99.90;;;;;;5052582;28;20051;-82
2023/01/16 12:55:59;;;;;;;3.00;2.40;;;3.60;99.90;;;;;;5052180;28;20052;-82
2023/01/16 12:58:30;;;;;;;3.17;2.33;;;3.60;99.90;;;;;;5052414;28;20041;-82
2023/01/16 13:01:23;;;;;;;3.67;2.53;;;3.70;99.90;;;;;;5052707;28;20117;-82
2023/01/16 13:04:06;;;;;;;3.15;2.17;;;3.70;99.90;;;;;;5035745;28;20048;-82
2023/01/16 13:06:40;;;;;;;4.55;3.20;;;3.70;99.90;;;;;;5052494;28;20402;-82
2023/01/16 13:09:18;;;;;;;3.97;2.55;;;3.80;99.90;;;;;;5050027;28;20045;-82
2023/01/16 13:14:58;;;;;;;5.63;2.42;;;3.80;99.90;;;;;;5052034;28;20056;-82
2023/01/16 13:17:36;;;;;;;3.35;2.30;;;3.70;99.90;;;;;;5051973;28;20086;-82
2023/01/16 13:20:04;;;;;;;4.22;2.25;;;3.80;99.90;;;;;;5052028;28;20434;-82
2023/01/16 13:22:41;;;;;;;4.93;2.65;;;3.80;99.90;;;;;;5052010;28;20056;-82
2023/01/16 13:25:42;;;;;;;3.92;2.17;;;3.80;99.90;;;;;;5035242;28;20055;-82
2023/01/16 13:28:16;;;;;;;3.15;2.15;;;3.80;99.90;;;;;;5031926;28;20135;-82
2023/01/16 13:30:42;;;;;;;3.15;2.42;;;3.80;99.90;;;;;;5052070;28;20045;-82
2023/01/16 13:33:12;;;;;;;3.22;2.50;;;3.80;99.90;;;;;;5051244;28;20062;-82
2023/01/16 13:35:55;;;;;;;3.63;2.50;;;3.80;99.90;;;;;;5052062;28;20067;-82
2023/01/16 13:38:40;;;;;;;4.63;2.30;;;3.90;99.90;;;;;;5048635;28;20033;-82
2023/01/16 13:41:30;;;;;;;4.28;2.50;;;3.90;99.90;;;;;;5051054;28;20625;-82
2023/01/16 13:47:11;;;;;;;4.75;2.78;;;3.90;99.90;;;;;;5058099;28;20579;-81
2023/01/16 13:49:37;;;;;;;3.90;2.60;;;3.90;99.90;;;;;;5052172;28;20154;-82
2023/01/16 13:52:04;;;;;;;3.83;2.38;;;3.90;99.90;;;;;;5046658;28;20628;-82
2023/01/16 13:54:40;;;;;;;4.28;2.95;;;4.00;99.90;;;;;;5053394;28;20506;-82
2023/01/16 13:57:20;;;;;;;3.42;2.38;;;4.00;99.90;;;;;;5045782;28;20407;-82
2023/01/16 13:59:57;;;;;;;4.43;3.00;;;4.00;99.90;;;;;;5054783;28;20075;-82
2023/01/16 14:02:35;;;;;;;5.30;2.88;;;4.00;99.90;;;;;;5056579;28;20484;-82
2023/01/16 14:05:07;;;;;;;4.40;3.03;;;4.00;99.90;;;;;;5056240;28;20040;-82
2023/01/16 14:10:58;;;;;;;5.45;3.20;;;4.00;99.90;;;;;;5050828;28;20053;-82
2023/01/16 14:13:38;;;;;;;4.55;2.70;;;4.10;99.90;;;;;;5034416;28;20041;-82
2023/01/16 14:16:35;;;;;;;4.68;2.70;;;4.00;99.90;;;;;;5032774;28;20029;-82
2023/01/16 14:19:21;;;;;;;4.28;3.00;;;4.00;99.90;;;;;;5046662;28;20187;-82
2023/01/16 14:24:41;;;;;;;6.80;3.40;;;4.00;99.90;;;;;;5051114;28;20052;-82
2023/01/16 14:27:13;;;;;;;5.22;3.30;;;4.10;99.90;;;;;;5050857;28;20048;-82
2023/01/16 14:29:55;;;;;;;7.35;5.03;;;4.10;99.90;;;;;;5050565;28;20506;-81
2023/01/16 14:32:26;;;;;;;7.28;5.05;;;4.10;99.90;;;;;;5050851;28;20502;-82
2023/01/16 14:35:04;;;;;;;5.63;3.58;;;4.10;99.90;;;;;;5050819;28;20041;-82
2023/01/16 14:37:39;;;;;;;4.30;3.40;;;4.10;99.90;;;;;;5050893;28;20395;-82